Etusivu
METAR-TAF:

METAR-TAF

Lentoasemat :

Altenstadt, Saksa

Leveyspiiri: 47-50N, Pituuspiiri: 010-52E, korkeus merenpinnasta: 739 m

Tämänhetkinen sää

Tämä raportti tehtiin 58 minuuttia sitten, kello 18.20 UTC
Tuuli 2 kn kaakosta
Lämpötila 8°C
Kosteus 42%
Ilmanpaine 1000 hPa
Näkyvyys 10 km tai enemmän

METAR: ETHA 031820Z AUTO 13002KT 9999 // ////// 08/M04 Q1000 ///

Aika: 20:18 (19:18 UTC)


TAF: puuttuu

Säähavainnot ja -ennusteet yli 4000 lentoasemalta (METAR- ja TAF-raportit).

Käytössä olevat sääasemat on merkitty karttaan keltaisilla ja punaisilla pisteillä.

Aseta hiiri pisteen päälle nähdäksesi sääaseman nimen.

Klikkaa sitten nähdäksesi säähavainnot ja -ennusteet.

Kartan vaihtaminen: klikkaa mustalla rastilla varustettuja vihreitä pisteitä, niin voit zoomata sisään; viivalla varustettua vihreää pistettä, niin voit zoomata ulos tai vihreitä nuolia, niin pääset viereisille kartoille.


METAR-TAF: